sensor_id;sensor_type;location;lat;lon;timestamp;pressure;altitude;pressure_sealevel;temperature;humidity
48846;BME280;34665;51.886;5.436;2022-11-15T00:01:28;100669.59;;;12.80;100.00
48846;BME280;34665;51.886;5.436;2022-11-15T00:04:13;100655.25;;;13.25;100.00
48846;BME280;34665;51.886;5.436;2022-11-15T00:06:57;100661.66;;;13.56;100.00
48846;BME280;34665;51.886;5.436;2022-11-15T00:09:42;100663.28;;;13.32;100.00
48846;BME280;34665;51.886;5.436;2022-11-15T00:12:28;100664.09;;;13.83;100.00
48846;BME280;34665;51.886;5.436;2022-11-15T00:15:12;100660.31;;;13.40;100.00
48846;BME280;34665;51.886;5.436;2022-11-15T00:17:56;100665.13;;;13.82;100.00
48846;BME280;34665;51.886;5.436;2022-11-15T00:20:40;100661.94;;;13.41;100.00
48846;BME280;34665;51.886;5.436;2022-11-15T00:23:25;100658.72;;;13.83;100.00
48846;BME280;34665;51.886;5.436;2022-11-15T00:26:14;100660.97;;;13.03;100.00
48846;BME280;34665;51.886;5.436;2022-11-15T00:28:59;100664.91;;;13.33;100.00
48846;BME280;34665;51.886;5.436;2022-11-15T00:31:44;100656.13;;;13.51;100.00
48846;BME280;34665;51.886;5.436;2022-11-15T00:34:28;100655.03;;;14.22;100.00
48846;BME280;34665;51.886;5.436;2022-11-15T00:37:12;100659.34;;;13.85;100.00
48846;BME280;34665;51.886;5.436;2022-11-15T00:39:58;100662.38;;;14.33;100.00
48846;BME280;34665;51.886;5.436;2022-11-15T00:42:42;100659.66;;;13.13;100.00
48846;BME280;34665;51.886;5.436;2022-11-15T00:45:26;100642.41;;;14.03;100.00
48846;BME280;34665;51.886;5.436;2022-11-15T00:48:10;100643.03;;;14.73;100.00
48846;BME280;34665;51.886;5.436;2022-11-15T00:50:55;100640.84;;;14.63;100.00
48846;BME280;34665;51.886;5.436;2022-11-15T00:53:39;100647.91;;;14.95;100.00
48846;BME280;34665;51.886;5.436;2022-11-15T00:56:23;100640.66;;;14.28;100.00
48846;BME280;34665;51.886;5.436;2022-11-15T00:59:07;100640.97;;;14.01;100.00
48846;BME280;34665;51.886;5.436;2022-11-15T01:01:51;100646.22;;;14.33;100.00
48846;BME280;34665;51.886;5.436;2022-11-15T01:04:35;100643.63;;;14.75;100.00
48846;BME280;34665;51.886;5.436;2022-11-15T01:07:20;100630.75;;;15.20;100.00
48846;BME280;34665;51.886;5.436;2022-11-15T01:10:04;100637.63;;;15.04;100.00
48846;BME280;34665;51.886;5.436;2022-11-15T01:12:49;100628.94;;;14.90;100.00
48846;BME280;34665;51.886;5.436;2022-11-15T01:15:34;100619.50;;;14.50;100.00
48846;BME280;34665;51.886;5.436;2022-11-15T01:18:17;100624.09;;;19.93;100.00
48846;BME280;34665;51.886;5.436;2022-11-15T01:21:07;100617.41;;;15.01;100.00
48846;BME280;34665;51.886;5.436;2022-11-15T01:23:53;100620.38;;;14.13;100.00
48846;BME280;34665;51.886;5.436;2022-11-15T01:26:39;100608.41;;;13.90;100.00
48846;BME280;34665;51.886;5.436;2022-11-15T01:29:24;100603.41;;;14.31;100.00
48846;BME280;34665;51.886;5.436;2022-11-15T01:32:09;100614.09;;;14.01;100.00
48846;BME280;34665;51.886;5.436;2022-11-15T01:34:53;100594.13;;;13.71;100.00
48846;BME280;34665;51.886;5.436;2022-11-15T01:37:37;100607.53;;;13.97;100.00
48846;BME280;34665;51.886;5.436;2022-11-15T01:40:22;100593.91;;;13.73;100.00
48846;BME280;34665;51.886;5.436;2022-11-15T01:46:27;100598.00;;;14.50;100.00
48846;BME280;34665;51.886;5.436;2022-11-15T01:49:16;100592.88;;;14.60;100.00
48846;BME280;34665;51.886;5.436;2022-11-15T01:52:04;100595.44;;;14.86;100.00
48846;BME280;34665;51.886;5.436;2022-11-15T01:54:55;100603.59;;;15.10;100.00
48846;BME280;34665;51.886;5.436;2022-11-15T01:57:41;100592.31;;;14.70;100.00
48846;BME280;34665;51.886;5.436;2022-11-15T02:00:28;100600.63;;;14.38;100.00
48846;BME280;34665;51.886;5.436;2022-11-15T02:03:13;100595.16;;;14.75;100.00
48846;BME280;34665;51.886;5.436;2022-11-15T02:05:58;100594.56;;;14.43;100.00
48846;BME280;34665;51.886;5.436;2022-11-15T02:08:44;100593.13;;;14.59;100.00
48846;BME280;34665;51.886;5.436;2022-11-15T02:11:30;100583.00;;;14.73;100.00
48846;BME280;34665;51.886;5.436;2022-11-15T02:14:17;100580.94;;;14.87;100.00
48846;BME280;34665;51.886;5.436;2022-11-15T02:26:24;100575.81;;;14.67;100.00
48846;BME280;34665;51.886;5.436;2022-11-15T02:29:48;100567.41;;;15.17;100.00
48846;BME280;34665;51.886;5.436;2022-11-15T02:32:44;100556.16;;;15.09;100.00
48846;BME280;34665;51.886;5.436;2022-11-15T02:35:43;100562.72;;;15.37;100.00
48846;BME280;34665;51.886;5.436;2022-11-15T02:41:30;100537.19;;;15.63;100.00
48846;BME280;34665;51.886;5.436;2022-11-15T02:44:24;100536.44;;;15.68;100.00
48846;BME280;34665;51.886;5.436;2022-11-15T02:47:15;100525.09;;;15.66;100.00
48846;BME280;34665;51.886;5.436;2022-11-15T02:50:06;100520.78;;;15.41;100.00
48846;BME280;34665;51.886;5.436;2022-11-15T02:52:52;100532.72;;;15.09;100.00
48846;BME280;34665;51.886;5.436;2022-11-15T02:55:41;100525.69;;;15.44;100.00
48846;BME280;34665;51.886;5.436;2022-11-15T03:04:44;100524.06;;;15.19;100.00
48846;BME280;34665;51.886;5.436;2022-11-15T03:08:26;100520.53;;;15.66;100.00
48846;BME280;34665;51.886;5.436;2022-11-15T03:11:08;100516.31;;;15.58;100.00
48846;BME280;34665;51.886;5.436;2022-11-15T03:17:19;100519.84;;;15.59;100.00
48846;BME280;34665;51.886;5.436;2022-11-15T03:20:08;100524.47;;;15.87;100.00
48846;BME280;34665;51.886;5.436;2022-11-15T03:22:58;100517.88;;;16.07;100.00
48846;BME280;34665;51.886;5.436;2022-11-15T03:25:47;100539.84;;;15.75;100.00
48846;BME280;34665;51.886;5.436;2022-11-15T03:28:34;100537.03;;;15.82;100.00
48846;BME280;34665;51.886;5.436;2022-11-15T03:31:24;100537.25;;;15.92;100.00
48846;BME280;34665;51.886;5.436;2022-11-15T03:34:44;100533.06;;;15.72;100.00
48846;BME280;34665;51.886;5.436;2022-11-15T03:37:36;100528.22;;;15.86;100.00
48846;BME280;34665;51.886;5.436;2022-11-15T03:40:26;100529.13;;;16.04;100.00
48846;BME280;34665;51.886;5.436;2022-11-15T03:43:30;100528.97;;;15.70;100.00
48846;BME280;34665;51.886;5.436;2022-11-15T03:46:26;100522.38;;;15.89;100.00
48846;BME280;34665;51.886;5.436;2022-11-15T03:49:16;100535.91;;;16.18;100.00
48846;BME280;34665;51.886;5.436;2022-11-15T03:52:03;100537.03;;;15.94;100.00
48846;BME280;34665;51.886;5.436;2022-11-15T03:54:50;100532.94;;;15.91;100.00
48846;BME280;34665;51.886;5.436;2022-11-15T03:57:35;100534.06;;;16.07;100.00
48846;BME280;34665;51.886;5.436;2022-11-15T04:00:20;100542.66;;;15.92;100.00
48846;BME280;34665;51.886;5.436;2022-11-15T04:03:05;100533.59;;;15.86;100.00
48846;BME280;34665;51.886;5.436;2022-11-15T04:05:50;100533.91;;;16.43;100.00
48846;BME280;34665;51.886;5.436;2022-11-15T04:08:35;100520.63;;;15.71;100.00
48846;BME280;34665;51.886;5.436;2022-11-15T04:11:19;100521.75;;;15.87;100.00
48846;BME280;34665;51.886;5.436;2022-11-15T04:14:03;100508.41;;;16.04;100.00
48846;BME280;34665;51.886;5.436;2022-11-15T04:16:47;100513.97;;;16.15;100.00
48846;BME280;34665;51.886;5.436;2022-11-15T04:19:31;100509.06;;;16.12;100.00
48846;BME280;34665;51.886;5.436;2022-11-15T04:22:34;100516.53;;;15.93;100.00
48846;BME280;34665;51.886;5.436;2022-11-15T04:25:38;100515.25;;;16.12;100.00
48846;BME280;34665;51.886;5.436;2022-11-15T04:28:22;100509.03;;;16.41;100.00
48846;BME280;34665;51.886;5.436;2022-11-15T04:31:07;100510.25;;;16.04;100.00
48846;BME280;34665;51.886;5.436;2022-11-15T04:33:52;100520.00;;;16.05;100.00
48846;BME280;34665;51.886;5.436;2022-11-15T04:36:37;100520.28;;;15.91;100.00
48846;BME280;34665;51.886;5.436;2022-11-15T04:39:41;100520.16;;;15.74;100.00
48846;BME280;34665;51.886;5.436;2022-11-15T04:42:26;100520.56;;;16.07;100.00
48846;BME280;34665;51.886;5.436;2022-11-15T04:45:10;100519.59;;;15.48;100.00
48846;BME280;34665;51.886;5.436;2022-11-15T04:47:55;100522.38;;;15.89;100.00
48846;BME280;34665;51.886;5.436;2022-11-15T04:50:40;100519.09;;;15.75;100.00
48846;BME280;34665;51.886;5.436;2022-11-15T04:53:25;100516.38;;;15.99;100.00
48846;BME280;34665;51.886;5.436;2022-11-15T04:56:10;100514.72;;;15.98;100.00
48846;BME280;34665;51.886;5.436;2022-11-15T04:58:55;100516.97;;;15.89;100.00
48846;BME280;34665;51.886;5.436;2022-11-15T05:01:39;100509.53;;;16.09;100.00
48846;BME280;34665;51.886;5.436;2022-11-15T05:04:23;100514.16;;;15.96;100.00
48846;BME280;34665;51.886;5.436;2022-11-15T05:07:07;100520.59;;;16.24;100.00
48846;BME280;34665;51.886;5.436;2022-11-15T05:09:51;100524.41;;;16.11;100.00
48846;BME280;34665;51.886;5.436;2022-11-15T05:12:36;100520.66;;;16.12;100.00
48846;BME280;34665;51.886;5.436;2022-11-15T05:15:20;100517.59;;;16.20;100.00
48846;BME280;34665;51.886;5.436;2022-11-15T05:18:06;100525.00;;;16.42;100.00
48846;BME280;34665;51.886;5.436;2022-11-15T05:20:50;100522.38;;;15.89;100.00
48846;BME280;34665;51.886;5.436;2022-11-15T05:23:34;100527.53;;;15.91;100.00
48846;BME280;34665;51.886;5.436;2022-11-15T05:26:19;100529.22;;;16.09;100.00
48846;BME280;34665;51.886;5.436;2022-11-15T05:29:03;100528.84;;;15.65;100.00
48846;BME280;34665;51.886;5.436;2022-11-15T05:31:49;100522.63;;;16.17;100.00
48846;BME280;34665;51.886;5.436;2022-11-15T05:34:33;100521.16;;;16.38;100.00
48846;BME280;34665;51.886;5.436;2022-11-15T05:37:18;100524.59;;;16.51;100.00
48846;BME280;34665;51.886;5.436;2022-11-15T05:40:03;100531.09;;;16.67;100.00
48846;BME280;34665;51.886;5.436;2022-11-15T05:42:47;100521.13;;;16.67;100.00
48846;BME280;34665;51.886;5.436;2022-11-15T05:45:33;100522.25;;;16.88;100.00
48846;BME280;34665;51.886;5.436;2022-11-15T05:48:18;100524.41;;;17.20;100.00
48846;BME280;34665;51.886;5.436;2022-11-15T05:51:04;100522.84;;;16.90;100.00
48846;BME280;34665;51.886;5.436;2022-11-15T05:53:49;100522.44;;;17.16;100.00
48846;BME280;34665;51.886;5.436;2022-11-15T05:56:35;100534.53;;;16.79;100.00
48846;BME280;34665;51.886;5.436;2022-11-15T05:59:20;100529.38;;;16.95;100.00
48846;BME280;34665;51.886;5.436;2022-11-15T06:02:04;100534.53;;;16.62;100.00
48846;BME280;34665;51.886;5.436;2022-11-15T06:04:48;100540.69;;;20.47;100.00
48846;BME280;34665;51.886;5.436;2022-11-15T06:07:32;100540.13;;;21.43;100.00
48846;BME280;34665;51.886;5.436;2022-11-15T06:10:16;100535.69;;;17.17;100.00
48846;BME280;34665;51.886;5.436;2022-11-15T06:13:03;100535.34;;;16.62;100.00
48846;BME280;34665;51.886;5.436;2022-11-15T06:15:48;100528.44;;;17.01;100.00
48846;BME280;34665;51.886;5.436;2022-11-15T06:18:33;100533.47;;;16.34;100.00
48846;BME280;34665;51.886;5.436;2022-11-15T06:21:18;100534.22;;;15.76;100.00
48846;BME280;34665;51.886;5.436;2022-11-15T06:24:03;100536.16;;;16.05;100.00
48846;BME280;34665;51.886;5.436;2022-11-15T06:26:47;100533.09;;;16.13;100.00
48846;BME280;34665;51.886;5.436;2022-11-15T06:29:31;100534.34;;;16.23;100.00
48846;BME280;34665;51.886;5.436;2022-11-15T06:32:15;100539.63;;;16.29;100.00
48846;BME280;34665;51.886;5.436;2022-11-15T06:34:59;100540.69;;;16.28;100.00
48846;BME280;34665;51.886;5.436;2022-11-15T06:37:43;100546.69;;;16.18;100.00
48846;BME280;34665;51.886;5.436;2022-11-15T06:40:27;100555.63;;;16.07;100.00
48846;BME280;34665;51.886;5.436;2022-11-15T06:43:12;100554.00;;;16.06;100.00
48846;BME280;34665;51.886;5.436;2022-11-15T06:45:58;100552.38;;;16.34;100.00
48846;BME280;34665;51.886;5.436;2022-11-15T06:48:43;100556.88;;;16.28;100.00
48846;BME280;34665;51.886;5.436;2022-11-15T06:51:28;100557.22;;;16.20;100.00
48846;BME280;34665;51.886;5.436;2022-11-15T06:54:13;100558.28;;;16.19;100.00
48846;BME280;34665;51.886;5.436;2022-11-15T06:56:57;100561.03;;;16.65;100.00
48846;BME280;34665;51.886;5.436;2022-11-15T06:59:41;100561.31;;;15.70;100.00
48846;BME280;34665;51.886;5.436;2022-11-15T07:02:25;100566.66;;;16.05;100.00
48846;BME280;34665;51.886;5.436;2022-11-15T07:05:10;100569.78;;;16.55;100.00
48846;BME280;34665;51.886;5.436;2022-11-15T07:07:57;100582.81;;;16.17;100.00
48846;BME280;34665;51.886;5.436;2022-11-15T07:10:41;100570.09;;;16.30;100.00
48846;BME280;34665;51.886;5.436;2022-11-15T07:13:26;100581.09;;;16.40;100.00
48846;BME280;34665;51.886;5.436;2022-11-15T07:16:11;100583.09;;;16.04;100.00
48846;BME280;34665;51.886;5.436;2022-11-15T07:18:56;100587.25;;;16.24;100.00
48846;BME280;34665;51.886;5.436;2022-11-15T07:21:40;100588.56;;;16.09;100.00
48846;BME280;34665;51.886;5.436;2022-11-15T07:24:25;100584.22;;;16.49;100.00
48846;BME280;34665;51.886;5.436;2022-11-15T07:27:09;100593.81;;;16.86;100.00
48846;BME280;34665;51.886;5.436;2022-11-15T07:29:53;100590.00;;;16.70;100.00
48846;BME280;34665;51.886;5.436;2022-11-15T07:32:37;100592.91;;;16.51;100.00
48846;BME280;34665;51.886;5.436;2022-11-15T07:35:22;100587.03;;;16.54;100.00
48846;BME280;34665;51.886;5.436;2022-11-15T07:38:06;100579.41;;;16.51;100.00
48846;BME280;34665;51.886;5.436;2022-11-15T07:41:00;100579.03;;;16.76;100.00
48846;BME280;34665;51.886;5.436;2022-11-15T07:43:44;100570.03;;;16.71;100.00
48846;BME280;34665;51.886;5.436;2022-11-15T07:46:29;100572.00;;;16.75;100.00
48846;BME280;34665;51.886;5.436;2022-11-15T07:49:14;100572.50;;;16.72;100.00
48846;BME280;34665;51.886;5.436;2022-11-15T07:51:59;100568.06;;;16.66;100.00
48846;BME280;34665;51.886;5.436;2022-11-15T07:54:42;100567.00;;;16.67;100.00
48846;BME280;34665;51.886;5.436;2022-11-15T07:57:29;100567.66;;;16.74;100.00
48846;BME280;34665;51.886;5.436;2022-11-15T08:00:14;100567.25;;;16.66;100.00
48846;BME280;34665;51.886;5.436;2022-11-15T08:03:09;100561.47;;;16.91;100.00
48846;BME280;34665;51.886;5.436;2022-11-15T08:05:54;100570.56;;;16.85;100.00
48846;BME280;34665;51.886;5.436;2022-11-15T08:08:40;100565.56;;;16.94;100.00
48846;BME280;34665;51.886;5.436;2022-11-15T08:11:24;100570.44;;;16.80;100.00
48846;BME280;34665;51.886;5.436;2022-11-15T08:14:08;100567.00;;;16.50;100.00
48846;BME280;34665;51.886;5.436;2022-11-15T08:16:54;100573.09;;;16.45;100.00
48846;BME280;34665;51.886;5.436;2022-11-15T08:19:38;100573.06;;;16.74;100.00
48846;BME280;34665;51.886;5.436;2022-11-15T08:22:22;100566.19;;;16.67;100.00
48846;BME280;34665;51.886;5.436;2022-11-15T08:25:06;100564.69;;;16.30;100.00
48846;BME280;34665;51.886;5.436;2022-11-15T08:27:56;100568.47;;;16.29;100.00
48846;BME280;34665;51.886;5.436;2022-11-15T08:30:44;100572.47;;;16.26;100.00
48846;BME280;34665;51.886;5.436;2022-11-15T08:33:30;100562.09;;;16.06;100.00
48846;BME280;34665;51.886;5.436;2022-11-15T08:36:16;100568.44;;;16.00;100.00
48846;BME280;34665;51.886;5.436;2022-11-15T08:39:01;100568.75;;;16.15;100.00
48846;BME280;34665;51.886;5.436;2022-11-15T08:41:46;100563.13;;;16.05;100.00
48846;BME280;34665;51.886;5.436;2022-11-15T08:44:31;100558.28;;;16.19;100.00
48846;BME280;34665;51.886;5.436;2022-11-15T08:47:16;100554.66;;;16.13;100.00
48846;BME280;34665;51.886;5.436;2022-11-15T08:50:00;100550.34;;;16.41;100.00
48846;BME280;34665;51.886;5.436;2022-11-15T08:52:44;100556.91;;;16.45;100.00
48846;BME280;34665;51.886;5.436;2022-11-15T08:55:29;100547.84;;;16.52;100.00
48846;BME280;34665;51.886;5.436;2022-11-15T08:58:13;100550.19;;;16.48;100.00
48846;BME280;34665;51.886;5.436;2022-11-15T09:00:58;100544.56;;;16.20;100.00
48846;BME280;34665;51.886;5.436;2022-11-15T09:03:42;100542.22;;;16.53;100.00
48846;BME280;34665;51.886;5.436;2022-11-15T09:06:28;100546.56;;;16.71;100.00
48846;BME280;34665;51.886;5.436;2022-11-15T09:09:12;100547.63;;;18.00;100.00
48846;BME280;34665;51.886;5.436;2022-11-15T09:11:56;100551.47;;;19.14;100.00
48846;BME280;34665;51.886;5.436;2022-11-15T09:14:40;100542.34;;;18.33;100.00
48846;BME280;34665;51.886;5.436;2022-11-15T09:17:26;100555.22;;;19.08;100.00
48846;BME280;34665;51.886;5.436;2022-11-15T09:20:10;100541.28;;;18.94;100.00
48846;BME280;34665;51.886;5.436;2022-11-15T09:22:54;100540.34;;;18.01;100.00
48846;BME280;34665;51.886;5.436;2022-11-15T09:25:39;100536.00;;;18.00;100.00
48846;BME280;34665;51.886;5.436;2022-11-15T09:28:23;100529.44;;;17.96;100.00
48846;BME280;34665;51.886;5.436;2022-11-15T09:31:08;100539.53;;;18.83;100.00
48846;BME280;34665;51.886;5.436;2022-11-15T09:33:52;100525.47;;;19.18;100.00
48846;BME280;34665;51.886;5.436;2022-11-15T09:36:36;100520.16;;;19.34;100.00
48846;BME280;34665;51.886;5.436;2022-11-15T09:39:20;100527.25;;;19.99;100.00
48846;BME280;34665;51.886;5.436;2022-11-15T09:42:24;100531.41;;;20.27;100.00
48846;BME280;34665;51.886;5.436;2022-11-15T09:45:20;100516.06;;;19.85;100.00
48846;BME280;34665;51.886;5.436;2022-11-15T09:50:59;100533.94;;;20.86;100.00
48846;BME280;34665;51.886;5.436;2022-11-15T09:53:36;100533.88;;;19.65;100.00
48846;BME280;34665;51.886;5.436;2022-11-15T09:56:14;100516.13;;;19.42;100.00
48846;BME280;34665;51.886;5.436;2022-11-15T09:59:04;100516.00;;;18.83;100.00
48846;BME280;34665;51.886;5.436;2022-11-15T10:04:21;100526.41;;;17.70;100.00
48846;BME280;34665;51.886;5.436;2022-11-15T10:07:10;100504.00;;;17.69;100.00
48846;BME280;34665;51.886;5.436;2022-11-15T10:09:47;100510.41;;;17.85;100.00
48846;BME280;34665;51.886;5.436;2022-11-15T10:12:16;100506.16;;;17.50;100.00
48846;BME280;34665;51.886;5.436;2022-11-15T10:14:42;100511.47;;;17.84;100.00
48846;BME280;34665;51.886;5.436;2022-11-15T10:20:37;100519.84;;;18.05;100.00
48846;BME280;34665;51.886;5.436;2022-11-15T10:22:45;100508.94;;;18.49;100.00
48846;BME280;34665;51.886;5.436;2022-11-15T10:27:50;100480.66;;;17.85;100.00
48846;BME280;34665;51.886;5.436;2022-11-15T10:30:19;100493.59;;;18.05;100.00
48846;BME280;34665;51.886;5.436;2022-11-15T10:32:46;100487.56;;;17.76;100.00
48846;BME280;34665;51.886;5.436;2022-11-15T10:35:25;100486.94;;;17.46;100.00
48846;BME280;34665;51.886;5.436;2022-11-15T10:37:51;100495.19;;;17.79;100.00
48846;BME280;34665;51.886;5.436;2022-11-15T10:40:21;100510.41;;;18.35;100.00
48846;BME280;34665;51.886;5.436;2022-11-15T10:42:47;100494.44;;;18.66;100.00
48846;BME280;34665;51.886;5.436;2022-11-15T10:45:25;100472.06;;;18.16;100.00
48846;BME280;34665;51.886;5.436;2022-11-15T10:47:51;100460.44;;;19.18;100.00
48846;BME280;34665;51.886;5.436;2022-11-15T10:50:46;100463.09;;;19.72;100.00
48846;BME280;34665;51.886;5.436;2022-11-15T10:53:46;100454.13;;;19.61;100.00
48846;BME280;34665;51.886;5.436;2022-11-15T10:56:14;100458.31;;;19.95;100.00
48846;BME280;34665;51.886;5.436;2022-11-15T10:58:45;100465.72;;;20.51;100.00
48846;BME280;34665;51.886;5.436;2022-11-15T11:01:17;100458.34;;;21.14;100.00
48846;BME280;34665;51.886;5.436;2022-11-15T11:03:57;100451.72;;;21.46;100.00
48846;BME280;34665;51.886;5.436;2022-11-15T11:06:26;100450.50;;;20.91;100.00
48846;BME280;34665;51.886;5.436;2022-11-15T11:09:02;100444.72;;;21.90;100.00
48846;BME280;34665;51.886;5.436;2022-11-15T11:11:49;100450.50;;;22.87;91.38
48846;BME280;34665;51.886;5.436;2022-11-15T11:14:29;100457.38;;;23.09;84.69
48846;BME280;34665;51.886;5.436;2022-11-15T11:33:17;100437.06;;;24.08;72.41
48846;BME280;34665;51.886;5.436;2022-11-15T11:38:45;100425.81;;;23.71;68.16
48846;BME280;34665;51.886;5.436;2022-11-15T11:44:17;100426.69;;;22.34;75.03
48846;BME280;34665;51.886;5.436;2022-11-15T11:52:42;100392.38;;;21.53;80.02
48846;BME280;34665;51.886;5.436;2022-11-15T11:57:51;100383.84;;;21.10;80.57
48846;BME280;34665;51.886;5.436;2022-11-15T12:00:22;100383.25;;;21.28;80.28
48846;BME280;34665;51.886;5.436;2022-11-15T12:05:54;100374.13;;;21.54;77.43
48846;BME280;34665;51.886;5.436;2022-11-15T12:13:44;100365.38;;;22.07;76.58
48846;BME280;34665;51.886;5.436;2022-11-15T12:16:40;100357.13;;;22.52;74.08
48846;BME280;34665;51.886;5.436;2022-11-15T12:19:07;100360.13;;;22.45;73.21
48846;BME280;34665;51.886;5.436;2022-11-15T12:24:24;100340.06;;;22.66;73.23
48846;BME280;34665;51.886;5.436;2022-11-15T12:27:16;100345.81;;;22.34;73.52
48846;BME280;34665;51.886;5.436;2022-11-15T12:29:47;100335.59;;;22.51;71.57
48846;BME280;34665;51.886;5.436;2022-11-15T12:32:35;100327.78;;;22.68;70.94
48846;BME280;34665;51.886;5.436;2022-11-15T12:35:06;100319.78;;;22.53;69.81
48846;BME280;34665;51.886;5.436;2022-11-15T12:37:51;100321.56;;;22.33;69.91
48846;BME280;34665;51.886;5.436;2022-11-15T12:43:34;100308.09;;;22.47;71.77
48846;BME280;34665;51.886;5.436;2022-11-15T12:46:01;100302.31;;;22.54;72.40
48846;BME280;34665;51.886;5.436;2022-11-15T12:51:00;100293.81;;;22.60;71.60
48846;BME280;34665;51.886;5.436;2022-11-15T12:53:31;100291.44;;;22.97;70.64
48846;BME280;34665;51.886;5.436;2022-11-15T13:07:08;100267.63;;;21.36;78.08
48846;BME280;34665;51.886;5.436;2022-11-15T13:12:11;100264.63;;;20.82;84.57
48846;BME280;34665;51.886;5.436;2022-11-15T13:15:00;100259.78;;;20.69;87.28
48846;BME280;34665;51.886;5.436;2022-11-15T13:17:37;100262.75;;;20.77;87.22
48846;BME280;34665;51.886;5.436;2022-11-15T13:22:39;100252.97;;;20.82;88.07
48846;BME280;34665;51.886;5.436;2022-11-15T13:25:30;100247.09;;;20.54;88.94
48846;BME280;34665;51.886;5.436;2022-11-15T13:27:57;100237.88;;;20.39;89.71
48846;BME280;34665;51.886;5.436;2022-11-15T13:30:25;100234.63;;;20.37;90.25
48846;BME280;34665;51.886;5.436;2022-11-15T13:32:52;100225.19;;;20.19;91.78
48846;BME280;34665;51.886;5.436;2022-11-15T13:35:24;100216.81;;;19.84;93.07
48846;BME280;34665;51.886;5.436;2022-11-15T13:37:52;100216.78;;;19.79;94.94
48846;BME280;34665;51.886;5.436;2022-11-15T13:40:38;100215.97;;;19.63;98.42
48846;BME280;34665;51.886;5.436;2022-11-15T13:43:36;100204.88;;;19.54;100.00
48846;BME280;34665;51.886;5.436;2022-11-15T13:48:33;100209.22;;;19.66;100.00
48846;BME280;34665;51.886;5.436;2022-11-15T13:51:08;100192.91;;;19.03;100.00
48846;BME280;34665;51.886;5.436;2022-11-15T13:53:40;100191.31;;;19.39;100.00
48846;BME280;34665;51.886;5.436;2022-11-15T13:56:08;100183.72;;;19.30;100.00
48846;BME280;34665;51.886;5.436;2022-11-15T13:58:37;100181.97;;;18.83;100.00
48846;BME280;34665;51.886;5.436;2022-11-15T14:01:04;100181.00;;;19.35;100.00
48846;BME280;34665;51.886;5.436;2022-11-15T14:03:34;100162.00;;;18.99;100.00
48846;BME280;34665;51.886;5.436;2022-11-15T14:08:25;100161.09;;;18.78;100.00
48846;BME280;34665;51.886;5.436;2022-11-15T14:11:19;100155.91;;;18.61;100.00
48846;BME280;34665;51.886;5.436;2022-11-15T14:19:04;100146.16;;;18.55;100.00
48846;BME280;34665;51.886;5.436;2022-11-15T14:21:30;100145.06;;;18.61;100.00
48846;BME280;34665;51.886;5.436;2022-11-15T14:24:16;100142.75;;;18.22;100.00
48846;BME280;34665;51.886;5.436;2022-11-15T14:26:42;100141.19;;;18.26;100.00
48846;BME280;34665;51.886;5.436;2022-11-15T14:29:28;100125.19;;;18.24;100.00
48846;BME280;34665;51.886;5.436;2022-11-15T14:32:12;100114.69;;;18.38;100.00
48846;BME280;34665;51.886;5.436;2022-11-15T14:34:38;100106.97;;;18.94;100.00
48846;BME280;34665;51.886;5.436;2022-11-15T14:37:04;100110.78;;;19.18;100.00
48846;BME280;34665;51.886;5.436;2022-11-15T14:39:30;100118.09;;;19.13;100.00
48846;BME280;34665;51.886;5.436;2022-11-15T14:41:55;100112.13;;;19.47;100.00
48846;BME280;34665;51.886;5.436;2022-11-15T14:44:21;100099.91;;;18.87;100.00
48846;BME280;34665;51.886;5.436;2022-11-15T14:46:47;100095.28;;;18.88;100.00
48846;BME280;34665;51.886;5.436;2022-11-15T14:49:13;100092.59;;;18.77;100.00
48846;BME280;34665;51.886;5.436;2022-11-15T14:51:40;100095.97;;;18.26;100.00
48846;BME280;34665;51.886;5.436;2022-11-15T14:54:10;100085.53;;;18.76;100.00
48846;BME280;34665;51.886;5.436;2022-11-15T14:56:35;100070.59;;;18.53;100.00
48846;BME280;34665;51.886;5.436;2022-11-15T14:59:01;100080.56;;;18.27;100.00
48846;BME280;34665;51.886;5.436;2022-11-15T15:01:27;100063.91;;;17.97;100.00
48846;BME280;34665;51.886;5.436;2022-11-15T15:03:53;100061.41;;;17.80;100.00
48846;BME280;34665;51.886;5.436;2022-11-15T15:06:24;100065.88;;;18.12;100.00
48846;BME280;34665;51.886;5.436;2022-11-15T15:08:52;100062.69;;;18.26;100.00
48846;BME280;34665;51.886;5.436;2022-11-15T15:11:23;100056.78;;;17.81;100.00
48846;BME280;34665;51.886;5.436;2022-11-15T15:13:50;100040.34;;;17.92;100.00
48846;BME280;34665;51.886;5.436;2022-11-15T15:16:18;100042.50;;;17.90;100.00
48846;BME280;34665;51.886;5.436;2022-11-15T15:18:44;100042.41;;;17.75;100.00
48846;BME280;34665;51.886;5.436;2022-11-15T15:21:23;100038.75;;;17.43;100.00
48846;BME280;34665;51.886;5.436;2022-11-15T15:23:50;100034.13;;;17.39;100.00
48846;BME280;34665;51.886;5.436;2022-11-15T15:26:16;100026.22;;;17.27;100.00
48846;BME280;34665;51.886;5.436;2022-11-15T15:28:42;100018.13;;;17.27;100.00
48846;BME280;34665;51.886;5.436;2022-11-15T15:31:08;100020.72;;;17.16;100.00
48846;BME280;34665;51.886;5.436;2022-11-15T15:33:34;100026.53;;;17.30;100.00
48846;BME280;34665;51.886;5.436;2022-11-15T15:36:00;100009.94;;;17.65;100.00
48846;BME280;34665;51.886;5.436;2022-11-15T15:38:26;100015.38;;;17.75;100.00
48846;BME280;34665;51.886;5.436;2022-11-15T15:40:51;100016.09;;;17.55;100.00
48846;BME280;34665;51.886;5.436;2022-11-15T15:43:17;100000.66;;;17.50;100.00
48846;BME280;34665;51.886;5.436;2022-11-15T15:45:44;99999.75;;;17.29;100.00